createdAt,value
2022-10-02T00:11:05.768Z,13.98
2022-10-02T00:11:47.717Z,13.65
2022-10-02T00:12:23.586Z,13.59
2022-10-02T00:13:06.159Z,13.48
2022-10-02T00:54:03.398Z,13.98
2022-10-02T00:55:01.167Z,13.90
2022-10-02T00:56:49.708Z,14.12
2022-10-02T00:57:50.538Z,14.07
2022-10-02T01:01:06.200Z,14.07
2022-10-02T01:38:14.200Z,13.75
2022-10-02T01:38:52.600Z,14.02
2022-10-02T01:39:34.078Z,14.40
2022-10-02T01:43:06.856Z,14.23
2022-10-02T01:43:41.927Z,14.28
2022-10-02T01:44:26.110Z,14.48
2022-10-02T01:45:01.652Z,14.45
2022-10-02T01:45:59.524Z,14.55
2022-10-02T01:55:20.624Z,14.40
2022-10-02T01:56:37.093Z,14.40
2022-10-02T01:58:01.223Z,14.10
2022-10-02T01:58:54.811Z,14.50
2022-10-02T01:59:46.054Z,14.13
2022-10-02T02:00:20.438Z,14.00
2022-10-02T02:01:05.300Z,14.04
2022-10-02T02:01:53.120Z,13.95
2022-10-02T02:02:45.900Z,14.21
2022-10-02T02:32:32.277Z,13.79
2022-10-02T02:33:54.919Z,13.88
2022-10-02T02:41:38.176Z,14.03
2022-10-02T02:43:27.589Z,14.18
2022-10-02T02:44:01.847Z,13.85
2022-10-02T02:44:41.503Z,13.77
2022-10-02T02:45:38.927Z,14.15
2022-10-02T03:13:24.560Z,13.94
2022-10-02T03:26:08.271Z,13.73
2022-10-02T03:30:05.745Z,13.97
2022-10-02T03:31:04.704Z,13.83
2022-10-02T03:32:32.208Z,13.93
2022-10-02T03:52:07.463Z,13.10
2022-10-02T04:13:04.121Z,13.16
2022-10-02T04:13:41.273Z,13.17
2022-10-02T04:14:18.516Z,13.18
2022-10-02T04:14:58.125Z,13.38
2022-10-02T04:16:02.182Z,13.23
2022-10-02T04:17:15.298Z,13.19
2022-10-02T04:17:58.754Z,13.13
2022-10-02T04:18:38.101Z,13.12
2022-10-02T04:19:26.282Z,13.28
2022-10-02T04:20:09.846Z,13.41
2022-10-02T04:21:51.020Z,13.40
2022-10-02T04:22:48.180Z,13.33
2022-10-02T04:23:23.471Z,13.67
2022-10-02T04:24:49.171Z,13.46
2022-10-02T04:26:14.504Z,13.40
2022-10-02T04:27:06.332Z,13.48
2022-10-02T04:34:40.028Z,13.13
2022-10-02T04:58:32.543Z,13.74
2022-10-02T04:59:31.936Z,13.86
2022-10-02T05:00:13.389Z,13.88
2022-10-02T05:01:21.970Z,13.75
2022-10-02T05:02:05.336Z,13.61
2022-10-02T05:03:04.166Z,13.38
2022-10-02T05:04:18.964Z,13.63
2022-10-02T05:05:54.344Z,13.53
2022-10-02T05:06:52.126Z,14.04
2022-10-02T05:07:30.423Z,14.13
2022-10-02T05:09:32.537Z,13.72
2022-10-02T05:11:43.372Z,13.71
2022-10-02T05:12:37.547Z,13.66
2022-10-02T05:13:32.314Z,13.60
2022-10-02T05:14:32.835Z,13.37
2022-10-02T05:33:34.489Z,14.02
2022-10-02T05:34:40.614Z,14.02
2022-10-02T05:35:28.585Z,13.94
2022-10-02T05:36:19.135Z,13.72
2022-10-02T05:37:18.739Z,13.63
2022-10-02T05:40:10.708Z,13.78
2022-10-02T05:41:27.724Z,13.86
2022-10-02T05:42:22.020Z,13.64
2022-10-02T05:43:39.262Z,13.69
2022-10-02T05:44:24.491Z,13.98
2022-10-02T05:45:05.697Z,13.79
2022-10-02T05:45:44.624Z,13.75
2022-10-02T05:46:23.880Z,13.69
2022-10-02T05:47:45.186Z,13.58
2022-10-02T05:48:27.929Z,13.53
2022-10-02T05:49:06.630Z,13.68
2022-10-02T05:49:46.535Z,13.54
2022-10-02T05:50:20.309Z,13.97
2022-10-02T06:17:12.885Z,14.40
2022-10-02T06:17:56.519Z,14.40
2022-10-02T06:18:42.055Z,13.95
2022-10-02T06:19:30.148Z,13.93
2022-10-02T06:20:49.462Z,13.86
2022-10-02T06:21:49.838Z,13.77
2022-10-02T06:23:02.955Z,13.62
2022-10-02T06:23:20.783Z,14.05
2022-10-02T06:24:03.643Z,13.84
2022-10-02T07:03:44.840Z,14.96
2022-10-02T07:04:29.965Z,14.28
2022-10-02T08:04:57.815Z,15.83
2022-10-02T08:05:18.322Z,15.83
2022-10-02T08:05:58.182Z,15.92
2022-10-02T08:06:32.070Z,15.58
2022-10-02T08:07:11.701Z,15.69
2022-10-02T08:08:08.661Z,15.82
2022-10-02T08:09:22.035Z,15.66
2022-10-02T08:09:54.893Z,15.46
2022-10-02T08:11:07.946Z,15.03
2022-10-02T08:12:26.573Z,15.07
2022-10-02T08:13:21.544Z,15.61
2022-10-02T08:16:56.028Z,15.79
2022-10-02T08:18:30.003Z,15.79
2022-10-02T08:18:44.745Z,15.89
2022-10-02T08:19:28.007Z,15.80
2022-10-02T08:20:53.929Z,16.13
2022-10-02T08:21:10.472Z,15.60
2022-10-02T08:22:03.610Z,16.16
2022-10-02T08:22:54.002Z,16.51
2022-10-02T08:24:42.598Z,16.34
2022-10-02T08:29:04.552Z,16.72
2022-10-02T08:30:06.923Z,16.72
2022-10-02T08:30:45.893Z,15.91
2022-10-02T08:31:44.079Z,16.26
2022-10-02T08:32:00.874Z,16.20
2022-10-02T08:34:03.981Z,15.95
2022-10-02T08:35:08.349Z,16.35
2022-10-02T08:36:16.666Z,16.27
2022-10-02T08:52:45.513Z,17.48
2022-10-02T08:53:52.811Z,17.48
2022-10-02T08:55:22.652Z,16.84
2022-10-02T08:56:30.030Z,16.89
2022-10-02T08:57:24.296Z,17.19
2022-10-02T08:58:03.661Z,17.24
2022-10-02T10:09:55.478Z,19.64
2022-10-02T10:10:45.790Z,19.64
2022-10-02T10:11:56.401Z,19.24
2022-10-02T10:12:49.605Z,19.45
2022-10-02T10:14:04.951Z,19.27
2022-10-02T10:15:08.635Z,18.99
2022-10-02T10:15:51.802Z,18.90
2022-10-02T10:16:51.289Z,18.73
2022-10-02T10:17:50.908Z,18.82
2022-10-02T10:18:39.837Z,19.10
2022-10-02T10:19:32.953Z,18.72
2022-10-02T10:25:22.513Z,18.89
2022-10-02T10:26:29.824Z,18.89
2022-10-02T10:27:38.225Z,18.39
2022-10-02T10:28:20.146Z,18.31
2022-10-02T11:00:26.581Z,19.48
2022-10-02T11:01:14.515Z,19.48
2022-10-02T11:02:17.429Z,19.09
2022-10-02T11:03:22.214Z,19.03
2022-10-02T11:04:09.747Z,19.06
2022-10-02T12:00:06.060Z,18.98
2022-10-02T12:01:18.245Z,18.98
2022-10-02T12:02:49.668Z,18.78
2022-10-02T12:05:39.074Z,18.88
2022-10-02T12:27:55.362Z,19.30
2022-10-02T12:28:36.257Z,19.30
2022-10-02T12:29:40.996Z,18.92
2022-10-02T12:30:26.584Z,18.91
2022-10-02T12:31:15.283Z,18.98
2022-10-02T12:32:08.452Z,18.90
2022-10-02T12:32:55.720Z,18.91
2022-10-02T12:33:56.755Z,19.03
2022-10-02T12:34:51.124Z,18.97
2022-10-02T12:35:34.191Z,18.99
2022-10-02T12:36:27.548Z,18.95
2022-10-02T12:37:08.214Z,18.97
2022-10-02T12:38:21.344Z,19.00
2022-10-02T12:40:01.157Z,19.02
2022-10-02T13:00:20.898Z,19.29
2022-10-02T13:01:14.573Z,19.29
2022-10-02T13:28:20.993Z,18.25
2022-10-02T13:59:42.899Z,19.27
2022-10-02T14:00:22.771Z,19.27
2022-10-02T14:01:39.853Z,18.90
2022-10-02T14:04:23.495Z,18.63
2022-10-02T14:05:25.310Z,18.72
2022-10-02T14:05:57.779Z,18.85
2022-10-02T14:06:34.934Z,18.82
2022-10-02T14:07:49.029Z,18.89
2022-10-02T14:09:25.993Z,18.91
2022-10-02T14:10:16.451Z,18.92
2022-10-02T14:11:10.210Z,18.65
2022-10-02T14:12:07.994Z,18.38
2022-10-02T14:14:24.891Z,18.78
2022-10-02T14:15:29.797Z,18.88
2022-10-02T14:53:52.623Z,18.90
2022-10-02T14:57:43.970Z,18.56
2022-10-02T14:59:10.114Z,18.48
2022-10-02T15:02:46.614Z,18.99
2022-10-02T15:03:48.674Z,18.99
2022-10-02T15:05:00.047Z,18.56
2022-10-02T15:05:39.192Z,18.55
2022-10-02T15:07:16.669Z,18.54
2022-10-02T15:08:12.297Z,18.63
2022-10-02T15:08:50.286Z,18.66
2022-10-02T15:09:42.620Z,18.67
2022-10-02T15:10:39.717Z,18.51
2022-10-02T15:11:23.048Z,18.47
2022-10-02T15:14:18.293Z,18.51
2022-10-02T15:26:49.742Z,18.72
2022-10-02T15:27:30.156Z,18.72
2022-10-02T15:28:49.557Z,18.22
2022-10-02T15:29:35.453Z,18.32
2022-10-02T15:30:18.201Z,18.25
2022-10-02T15:31:37.624Z,18.24
2022-10-02T15:32:22.199Z,18.25
2022-10-02T15:33:33.830Z,18.14
2022-10-02T15:34:23.939Z,18.23
2022-10-02T15:35:33.368Z,18.18
2022-10-02T15:36:50.359Z,18.17
2022-10-02T15:37:55.635Z,18.07
2022-10-02T15:38:47.493Z,18.07
2022-10-02T15:39:29.123Z,18.05
2022-10-02T15:40:34.898Z,18.14
2022-10-02T15:41:46.410Z,18.25
2022-10-02T15:42:30.438Z,18.34
2022-10-02T15:44:08.595Z,18.25
2022-10-02T15:45:48.899Z,18.04
2022-10-02T15:47:19.796Z,18.07
2022-10-02T16:00:26.034Z,18.50
2022-10-02T16:01:28.076Z,18.50
2022-10-02T16:01:53.984Z,18.10
2022-10-02T16:02:07.040Z,18.06
2022-10-02T16:02:32.753Z,17.99
2022-10-02T16:02:57.516Z,17.88
2022-10-02T16:03:18.478Z,17.92
2022-10-02T16:04:03.011Z,17.93
2022-10-02T16:04:44.020Z,17.83
2022-10-02T16:05:21.989Z,17.73
2022-10-02T16:05:57.245Z,17.63
2022-10-02T16:06:32.787Z,17.59
2022-10-02T16:07:10.370Z,17.61
2022-10-02T16:07:41.436Z,17.68
2022-10-02T16:08:32.541Z,17.58
2022-10-02T16:09:27.725Z,17.57
2022-10-02T16:09:59.401Z,17.43
2022-10-02T16:10:24.741Z,17.48
2022-10-02T16:10:38.147Z,17.64
2022-10-02T16:11:16.965Z,17.63
2022-10-02T16:12:08.104Z,17.61
2022-10-02T16:12:54.633Z,17.63
2022-10-02T16:13:26.325Z,17.58
2022-10-02T16:13:43.498Z,17.49
2022-10-02T16:14:15.388Z,17.39
2022-10-02T16:14:52.433Z,17.57
2022-10-02T16:15:27.590Z,17.64
2022-10-02T16:15:45.816Z,17.54
2022-10-02T16:16:20.913Z,17.52
2022-10-02T16:17:11.424Z,17.55
2022-10-02T16:17:59.912Z,17.63
2022-10-02T16:18:24.443Z,17.52
2022-10-02T16:18:55.374Z,17.60
2022-10-02T16:19:47.774Z,17.50
2022-10-02T16:20:16.611Z,17.50
2022-10-02T16:20:38.632Z,17.42
2022-10-02T16:21:25.593Z,17.46
2022-10-02T16:21:50.248Z,17.54
2022-10-02T16:22:22.541Z,17.49
2022-10-02T16:22:54.227Z,17.42
2022-10-02T16:24:08.364Z,17.19
2022-10-02T16:24:52.512Z,17.21
2022-10-02T16:25:11.662Z,17.22
2022-10-02T16:25:33.351Z,17.23
2022-10-02T16:25:50.379Z,17.31
2022-10-02T16:26:13.869Z,17.27
2022-10-02T16:26:51.084Z,17.31
2022-10-02T16:36:58.528Z,16.63
2022-10-02T16:38:07.511Z,16.36
2022-10-02T16:38:50.967Z,17.02
2022-10-02T16:39:59.007Z,17.07
2022-10-02T16:40:56.974Z,17.07
2022-10-02T17:48:57.247Z,17.69
2022-10-02T17:50:17.830Z,17.70
2022-10-02T17:51:53.114Z,17.17
2022-10-02T18:08:09.367Z,17.60
2022-10-02T18:09:08.086Z,17.60
2022-10-02T18:09:52.738Z,17.16
2022-10-02T18:10:51.717Z,17.13
2022-10-02T18:12:51.914Z,16.92
2022-10-02T18:25:21.888Z,17.41
2022-10-02T18:26:47.829Z,17.41
2022-10-02T18:27:18.583Z,16.67
2022-10-02T18:28:00.385Z,16.92
2022-10-02T18:28:41.065Z,16.95
2022-10-02T18:29:55.226Z,17.00
2022-10-02T18:30:49.847Z,17.03
2022-10-02T18:31:55.183Z,16.93
2022-10-02T18:32:45.477Z,16.94
2022-10-02T18:33:41.050Z,17.06
2022-10-02T18:48:47.190Z,17.62
2022-10-02T18:49:01.043Z,17.62
2022-10-02T18:50:15.030Z,17.24
2022-10-02T18:51:42.137Z,17.01
2022-10-02T18:52:25.529Z,16.93
2022-10-02T18:53:24.865Z,16.70
2022-10-02T18:54:22.684Z,16.57
2022-10-02T18:55:34.665Z,16.63
2022-10-02T18:57:04.308Z,16.73
2022-10-02T18:57:45.794Z,16.34
2022-10-02T18:59:15.597Z,16.34
2022-10-02T19:01:21.886Z,16.41
2022-10-02T19:02:06.291Z,16.03
2022-10-02T19:37:18.744Z,16.29
2022-10-02T19:39:10.688Z,16.37
2022-10-02T19:42:13.539Z,16.42
2022-10-02T19:43:00.945Z,16.41
2022-10-02T20:20:22.384Z,15.21
2022-10-02T20:21:45.690Z,15.21
2022-10-02T20:53:26.770Z,15.51
2022-10-02T20:54:28.638Z,15.51
2022-10-02T20:55:40.750Z,14.88
2022-10-02T20:57:59.784Z,14.86
2022-10-02T20:58:41.169Z,14.63
2022-10-02T20:59:27.071Z,14.80
2022-10-02T21:00:15.948Z,14.38
2022-10-02T21:01:14.946Z,14.30
2022-10-02T21:02:26.267Z,14.32
2022-10-02T21:05:31.356Z,13.92
2022-10-02T21:29:04.268Z,14.40
2022-10-02T21:29:43.550Z,14.40
2022-10-02T21:30:20.471Z,14.10
2022-10-02T21:31:13.238Z,13.96
2022-10-02T21:32:35.606Z,13.91
2022-10-02T21:33:32.255Z,14.33
2022-10-02T21:37:34.826Z,14.13
2022-10-02T21:38:54.863Z,13.80
2022-10-02T21:48:29.074Z,13.82
2022-10-02T21:49:23.647Z,14.11
2022-10-02T21:50:23.832Z,14.29
2022-10-02T21:51:31.233Z,14.45
2022-10-02T22:27:44.068Z,14.52
2022-10-02T22:28:21.716Z,14.52
2022-10-02T22:29:08.879Z,14.02
2022-10-02T22:29:43.710Z,14.13
2022-10-02T22:30:45.943Z,14.49
2022-10-02T22:32:46.135Z,14.26
2022-10-02T22:34:22.541Z,13.73
2022-10-02T22:35:25.241Z,13.69
2022-10-02T22:36:21.548Z,13.71
2022-10-02T22:37:19.090Z,13.41
2022-10-02T22:38:34.535Z,13.33
2022-10-02T22:39:59.021Z,13.53
2022-10-02T23:11:39.168Z,13.46
2022-10-02T23:12:18.309Z,13.49
2022-10-02T23:13:09.670Z,13.63
2022-10-02T23:47:59.778Z,14.04
2022-10-02T23:48:36.576Z,14.04
2022-10-02T23:49:31.701Z,13.47
2022-10-02T23:50:05.211Z,13.82
2022-10-02T23:51:03.854Z,13.60
2022-10-02T23:51:48.096Z,13.89
2022-10-02T23:52:44.909Z,13.63
2022-10-02T23:54:07.257Z,13.41
2022-10-02T23:55:51.815Z,13.47
2022-10-02T23:57:54.857Z,13.48
2022-10-02T23:59:06.805Z,13.41
